Flight Track Log - Related Links

Times and Time Zones

All times are in EDT time to prevent confusion due to time zone crossing. See the OPT330 flight status page for this flight to view local times or setup timezone preferences in your user account.

Time Position Orientation Groundspeed Altitude Reporting Facility
EDT Latitude Longitude Course Direction KTS MPH feet Rate Location/Type
Sun 06:34:54 PM 30.1706 -97.6558 173° South 157 181 2,300  Level FlightAware ADS-B
Sun 06:35:11 PM 30.1574 -97.6538 172° South 174 200 2,900 2,069 Climbing FlightAware ADS-B
Sun 06:35:23 PM 30.1468 -97.6520 173° South 190 219 3,300 2,677 Climbing FlightAware ADS-B
Sun 06:36:16 PM 30.1151 -97.6853 188° South 195 224 5,800 2,906 Climbing FlightAware ADS-B
Sun 06:36:27 PM 30.1188 -97.6974 296° West 221 254 6,400 3,111 Climbing FlightAware ADS-B
Sun 06:36:43 PM 30.1271 -97.7140 300° West 223 257 7,200 3,103 Climbing FlightAware ADS-B
Sun 06:36:56 PM 30.1341 -97.7281 300° West 230 265 7,900 3,360 Climbing FlightAware ADS-B
Sun 06:37:08 PM 30.1405 -97.7409 300° West 233 268 8,600 3,360 Climbing FlightAware ADS-B
Sun 06:37:21 PM 30.1478 -97.7547 301° West 236 272 9,300 2,786 Climbing FlightAware ADS-B
Sun 06:37:36 PM 30.1565 -97.7708 301° West 241 277 9,900 2,182 Climbing FlightAware ADS-B
Sun 06:37:43 PM 30.1608 -97.7796 298° West 249 287 10,100 2,143 Climbing FlightAware ADS-B
Sun 06:37:50 PM 30.1640 -97.7877 293° West 253 291 10,400 2,400 Climbing FlightAware ADS-B
Sun 06:37:58 PM 30.1669 -97.7975 287° West 256 295 10,700 2,538 Climbing FlightAware ADS-B
Sun 06:38:16 PM 30.1728 -97.8215 286° West 265 305 11,500 2,308 Climbing FlightAware ADS-B
Sun 06:38:37 PM 30.1793 -97.8522 282° West 275 316 12,200 3,273 Climbing FlightAware ADS-B
Sun 06:39:00 PM 30.1849 -97.8828 283° West 251 289 13,900 3,962 Climbing FlightAware ADS-B
Sun 06:39:30 PM 30.1934 -97.9204 285° West 238 274 15,700 3,136 Climbing FlightAware ADS-B
Sun 06:39:44 PM 30.1975 -97.9380 286° West 246 283 16,200 2,000 Climbing FlightAware ADS-B
Sun 06:39:51 PM 30.2003 -97.9470 292° West 255 293 16,400 2,108 Climbing FlightAware ADS-B
Sun 06:40:21 PM 30.2183 -97.9847 300° West 273 314 17,500 2,500 Climbing FlightAware ADS-B
Sun 06:40:51 PM 30.2369 -98.0228 299° West 270 311 18,900 2,900 Climbing FlightAware ADS-B
Sun 06:41:21 PM 30.2546 -98.0611 298° West 268 308 20,400 2,557 Climbing FlightAware ADS-B
Sun 06:41:52 PM 30.2725 -98.1009 297° West 274 315 21,500 2,262 Climbing FlightAware ADS-B
Sun 06:42:22 PM 30.2903 -98.1404 298° West 276 318 22,700 2,557 Climbing FlightAware ADS-B
Sun 06:42:53 PM 30.3088 -98.1801 298° West 270 311 24,100 2,743 Climbing FlightAware ADS-B
Sun 06:42:57 PM 30.3109 -98.1844 299° West 268 308 24,300 3,000 Climbing FlightAware ADS-B (KHOU)
Sun 06:43:23 PM 30.3267 -98.2176 298° West 260 299 25,600 2,889 Climbing FlightAware ADS-B
Sun 06:43:24 PM 30.3264 -98.2169 299° West 260 299 25,600 774 Level FlightAware ADS-B (KHOU)
Sun 06:43:54 PM 30.3448 -98.2567 298° West 280 322 26,000 393 Climbing FlightAware ADS-B
Sun 06:44:25 PM 30.3648 -98.3001 298° West 306 352 26,000  Level FlightAware ADS-B
Sun 06:44:45 PM 30.3757 -98.3237 298° West 321 369 26,000  Level FlightAware ADS-B
Sun 06:44:55 PM 30.3860 -98.3460 298° West 325 374 26,000  Level FlightAware ADS-B
Sun 06:45:26 PM 30.4087 -98.3949 298° West 342 394 26,000  Level FlightAware ADS-B
Sun 06:45:58 PM 30.4327 -98.4469 298° West 353 406 26,000  Level FlightAware ADS-B
Sun 06:46:28 PM 30.4564 -98.4984 298° West 364 419 26,000  Level FlightAware ADS-B
Sun 06:46:30 PM 30.4532 -98.4915 298° West 364 419 26,000  Level FlightAware ADS-B
Sun 06:46:59 PM 30.4810 -98.5517 298° West 370 426 26,000  Level FlightAware ADS-B
Sun 06:47:02 PM 30.4835 -98.5572 298° West 369 425 26,000  Level FlightAware ADS-B
Sun 06:47:31 PM 30.5069 -98.6082 298° West 374 430 26,000  Level FlightAware ADS-B
Sun 06:47:58 PM 30.5248 -98.6472 298° West 376 433 26,000  Level FlightAware ADS-B (KHOU)
Sun 06:48:36 PM 30.5609 -98.7259 298° West 380 437 26,000  Level FlightAware ADS-B
Sun 06:48:37 PM 30.5609 -98.7259 298° West 379 436 26,000  Level FlightAware ADS-B (KHOU)
Sun 06:49:02 PM 30.5625 -98.7296 298° West 379 436 26,000  Level FlightAware ADS-B (KHOU)
Sun 06:49:42 PM 30.6145 -98.8432 298° West 379 436 26,000  Level FlightAware ADS-B (KHOU)
Sun 06:49:45 PM 30.6162 -98.8471 298° West 379 436 26,000 -1,133 Level FlightAware ADS-B (KHOU)
Sun 06:51:12 PM 30.6869 -99.0023 298° West 374 430 24,300 -839 Descending FlightAware ADS-B (KHOU)
Sun 06:52:08 PM 30.7217 -99.0789 298° West 375 432 24,000 -763 Descending Houston Center
Sun 06:53:10 PM 30.7719 -99.1911 298° West 357 411 22,800 -968 Descending Houston Center
Sun 06:54:12 PM 30.8169 -99.2900 298° West 350 403 22,000 -387 Descending Houston Center
Sun 06:55:14 PM 30.8606 -99.3875 298° West 344 396 22,000  Level Houston Center
Sun 06:56:16 PM 30.9050 -99.4844 298° West 342 394 22,000  Level Houston Center
Sun 06:57:18 PM 30.9558 -99.5997 297° West 338 389 22,000  Level Houston Center
Sun 06:58:20 PM 30.9981 -99.6944 297° West 334 384 22,000  Level Houston Center
Sun 06:59:23 PM 31.0408 -99.7886 298° West 333 383 22,000  Level Houston Center
Sun 07:00:25 PM 31.0825 -99.8833 297° West 332 382 22,000  Level Houston Center
Sun 07:01:33 PM 31.1331 -99.9978 297° West 333 383 22,000  Level Fort Worth Center
Sun 07:02:35 PM 31.1767 -100.0956 298° West 336 387 22,000  Level Fort Worth Center
Sun 07:03:37 PM 31.2189 -100.1922 297° West 336 387 22,000 -726 Level Fort Worth Center
Sun 07:04:39 PM 31.2711 -100.3094 298° West 337 388 20,500 -1,306 Descending Fort Worth Center
Sun 07:05:41 PM 31.3142 -100.4086 297° West 341 392 19,300 -1,113 Descending Fort Worth Center
Sun 07:06:43 PM 31.3553 -100.5031 297° West 332 382 18,200 -1,210 Descending Fort Worth Center
Sun 07:07:45 PM 31.3958 -100.5961 297° West 327 376 16,800 -1,210 Descending Fort Worth Center
Sun 07:08:47 PM 31.4392 -100.6967 297° West 317 365 15,700 -1,016 Descending Fort Worth Center
Sun 07:09:49 PM 31.4786 -100.7878 297° West 315 362 14,700 -871 Descending Fort Worth Center
Sun 07:10:51 PM 31.5178 -100.8797 297° West 315 362 13,900 -387 Descending Fort Worth Center
Sun 07:11:53 PM 31.5586 -100.9700 298° West 315 362 13,900  Level Fort Worth Center
Sun 07:12:54 PM 31.5972 -101.0581 297° West 309 356 13,900  Level Fort Worth Center
Sun 07:13:56 PM 31.6450 -101.1558 300° West 293 337 13,900  Level Fort Worth Center
Sun 07:14:58 PM 31.6919 -101.2300 307° West 290 334 13,900 48 Level Fort Worth Center
Sun 07:16:00 PM 31.7433 -101.3064 308° West 294 338 14,000 -97 Climbing Fort Worth Center
Sun 07:17:02 PM 31.7908 -101.3800 307° West 284 327 13,700 -629 Descending Fort Worth Center
Sun 07:18:04 PM 31.8353 -101.4489 307° West 269 310 12,700 -1,065 Descending Fort Worth Center
Sun 07:19:06 PM 31.8750 -101.5081 308° West 234 269 11,500 -1,258 Descending Fort Worth Center
Sun 07:20:08 PM 31.9325 -101.5681 318° Northwest 233 268 10,100 -1,258 Descending Fort Worth Center
Sun 07:21:10 PM 31.9814 -101.6158 320° Northwest 232 267 8,900 -1,065 Descending Fort Worth Center
Sun 07:22:12 PM 32.0289 -101.6650 319° Northwest 231 266 7,900 -871 Descending Fort Worth Center
Sun 07:23:14 PM 32.0700 -101.7069 319° Northwest 204 235 7,100 -871 Descending Fort Worth Center
Sun 07:24:16 PM 32.1072 -101.7503 315° West 193 222 6,100 -871 Descending Fort Worth Center
Sun 07:25:18 PM 32.1081 -101.8019 271° West 174 200 5,300 -532 Descending Fort Worth Center
Sun 07:26:20 PM 32.0942 -101.8628 255° West 167 192 5,000 -145 Descending Fort Worth Center
Sun 07:27:22 PM 32.0825 -101.9117 254° West 160 184 5,000  Level Fort Worth Center
Sun 07:28:24 PM 32.0711 -101.9608 255° West 159 183 5,000 -290 Level Fort Worth Center
Sun 07:29:26 PM 32.0644 -101.9931 256° West 115 132 4,400 -532 Descending Fort Worth Center
Sun 07:30:28 PM 32.0572 -102.0269 256° West 109 125 3,900 -484 Descending Fort Worth Center
Sun 07:31:30 PM 32.0492 -102.0606 254° West 109 125 3,400 -387 Descending Fort Worth Center
Sun 07:32:32 PM 32.0400 -102.0967 253° West 109 125 3,100 -290 Descending Fort Worth Center
Sun 07:34:00 PM 32.0333 -102.1000 270° West  Level FlightAware Approximate
Sun 07:41:00 PM 32.0365 -102.1010 270° West  Level Estimated

Login

Don't have an account? Register now (free) for customized features, flight alerts, and more!